createdAt,value
2018-09-23T00:00:55.060Z,101049.73
2018-09-23T00:03:25.613Z,101046.83
2018-09-23T00:05:56.120Z,101047.13
2018-09-23T00:08:26.717Z,101042.20
2018-09-23T00:10:57.293Z,101043.61
2018-09-23T00:13:27.523Z,101044.11
2018-09-23T00:15:57.931Z,101044.75
2018-09-23T00:18:28.400Z,101041.19
2018-09-23T00:20:58.823Z,101029.28
2018-09-23T00:23:29.042Z,101031.55
2018-09-23T00:25:59.551Z,101028.71
2018-09-23T00:28:29.889Z,101022.45
2018-09-23T00:31:00.327Z,101018.88
2018-09-23T00:33:30.770Z,101033.27
2018-09-23T00:36:00.949Z,101029.23
2018-09-23T00:38:31.857Z,101022.12
2018-09-23T00:41:02.369Z,101028.38
2018-09-23T00:43:32.776Z,101018.23
2018-09-23T00:46:03.373Z,101011.61
2018-09-23T00:48:34.645Z,101010.81
2018-09-23T00:51:05.233Z,101005.27
2018-09-23T00:53:35.624Z,100994.63
2018-09-23T00:56:06.245Z,101001.05
2018-09-23T00:58:36.568Z,101008.36
2018-09-23T01:01:06.971Z,101015.89
2018-09-23T01:03:37.432Z,101012.25
2018-09-23T01:06:07.995Z,101009.06
2018-09-23T01:08:38.512Z,101019.89
2018-09-23T01:11:09.572Z,101014.69
2018-09-23T01:13:39.934Z,101012.42
2018-09-23T01:16:10.423Z,101009.60
2018-09-23T01:18:40.644Z,100998.73
2018-09-23T01:21:11.043Z,100991.19
2018-09-23T01:23:41.416Z,100984.49
2018-09-23T01:26:11.880Z,100974.88
2018-09-23T01:28:42.382Z,100983.48
2018-09-23T01:31:12.603Z,100994.66
2018-09-23T01:33:43.000Z,100993.64
2018-09-23T01:36:13.608Z,100988.52
2018-09-23T01:38:44.003Z,100979.95
2018-09-23T01:41:15.414Z,100984.95
2018-09-23T01:43:45.365Z,100991.64
2018-09-23T01:46:15.624Z,100986.00
2018-09-23T01:48:45.346Z,100984.38
2018-09-23T01:51:15.047Z,100978.61
2018-09-23T01:53:44.768Z,100965.17
2018-09-23T01:56:14.552Z,100967.66
2018-09-23T01:58:45.065Z,100963.92
2018-09-23T02:01:15.319Z,100969.97
2018-09-23T02:03:45.662Z,100968.14
2018-09-23T02:06:16.160Z,100957.80
2018-09-23T02:08:46.655Z,100958.48
2018-09-23T02:11:16.935Z,100945.64
2018-09-23T02:13:47.308Z,100940.35
2018-09-23T02:16:17.675Z,100933.11
2018-09-23T02:18:48.361Z,100936.32
2018-09-23T02:21:18.818Z,100933.55
2018-09-23T02:23:49.102Z,100938.37
2018-09-23T02:26:19.375Z,100933.03
2018-09-23T02:28:49.291Z,100934.09
2018-09-23T02:31:19.073Z,100932.86
2018-09-23T02:33:48.794Z,100930.20
2018-09-23T02:36:19.320Z,100930.48
2018-09-23T02:38:49.207Z,100927.10
2018-09-23T02:41:19.100Z,100923.82
2018-09-23T02:43:49.521Z,100916.66
2018-09-23T02:46:19.798Z,100915.17
2018-09-23T02:48:50.199Z,100924.58
2018-09-23T02:51:20.565Z,100921.48
2018-09-23T02:53:51.047Z,100915.50
2018-09-23T02:56:21.637Z,100912.26
2018-09-23T02:58:51.952Z,100913.88
2018-09-23T03:01:22.252Z,100914.31
2018-09-23T03:03:52.728Z,100912.98
2018-09-23T03:06:23.241Z,100897.42
2018-09-23T03:08:53.812Z,100902.71
2018-09-23T03:11:24.208Z,100909.95
2018-09-23T03:13:54.535Z,100906.68
2018-09-23T03:16:25.045Z,100896.70
2018-09-23T03:18:55.552Z,100892.81
2018-09-23T03:21:25.915Z,100888.34
2018-09-23T03:23:56.294Z,100885.03
2018-09-23T03:26:26.535Z,100882.07
2018-09-23T03:28:57.058Z,100882.69
2018-09-23T03:31:27.577Z,100877.93
2018-09-23T03:33:58.083Z,100879.84
2018-09-23T03:36:28.641Z,100872.50
2018-09-23T03:38:59.035Z,100869.33
2018-09-23T03:41:29.379Z,100871.05
2018-09-23T03:43:59.676Z,100868.69
2018-09-23T03:46:30.150Z,100871.45
2018-09-23T03:49:00.889Z,100864.82
2018-09-23T03:51:31.353Z,100865.22
2018-09-23T03:54:01.752Z,100860.03
2018-09-23T03:56:32.082Z,100856.58
2018-09-23T03:59:02.458Z,100858.41
2018-09-23T04:01:32.931Z,100857.11
2018-09-23T04:04:03.352Z,100857.55
2018-09-23T04:06:33.692Z,100854.05
2018-09-23T04:09:04.276Z,100844.70
2018-09-23T04:11:34.613Z,100840.44
2018-09-23T04:14:05.083Z,100839.53
2018-09-23T04:16:35.787Z,100833.80
2018-09-23T04:19:06.400Z,100831.36
2018-09-23T04:21:36.836Z,100833.41
2018-09-23T04:24:07.208Z,100834.61
2018-09-23T04:26:37.656Z,100831.55
2018-09-23T04:29:07.995Z,100828.64
2018-09-23T04:31:38.316Z,100832.16
2018-09-23T04:34:09.029Z,100825.53
2018-09-23T04:36:39.545Z,100823.84
2018-09-23T04:39:11.827Z,100820.27
2018-09-23T04:41:42.276Z,100815.30
2018-09-23T04:44:12.572Z,100803.50
2018-09-23T04:46:42.943Z,100798.02
2018-09-23T04:49:13.454Z,100795.73
2018-09-23T04:51:43.822Z,100793.93
2018-09-23T04:54:14.325Z,100785.77
2018-09-23T04:56:44.675Z,100785.70
2018-09-23T04:59:15.914Z,100778.93
2018-09-23T05:01:46.376Z,100781.38
2018-09-23T05:04:16.857Z,100784.80
2018-09-23T05:06:47.222Z,100780.50
2018-09-23T05:09:17.598Z,100771.11
2018-09-23T05:11:47.979Z,100769.53
2018-09-23T05:14:18.432Z,100776.70
2018-09-23T05:16:48.743Z,100791.50
2018-09-23T05:19:19.233Z,100802.63
2018-09-23T05:21:49.748Z,100810.39
2018-09-23T05:24:19.994Z,100812.33
2018-09-23T05:26:50.439Z,100804.48
2018-09-23T05:29:20.772Z,100792.00
2018-09-23T05:31:51.181Z,100795.95
2018-09-23T05:34:21.639Z,100800.49
2018-09-23T05:36:52.053Z,100790.27
2018-09-23T05:39:22.268Z,100776.34
2018-09-23T05:41:52.615Z,100771.16
2018-09-23T05:44:22.950Z,100778.46
2018-09-23T05:46:53.492Z,100779.53
2018-09-23T05:49:23.895Z,100771.84
2018-09-23T05:51:54.204Z,100765.88
2018-09-23T05:54:24.578Z,100772.70
2018-09-23T05:56:54.872Z,100776.17
2018-09-23T05:59:25.456Z,100770.59
2018-09-23T06:01:55.835Z,100761.81
2018-09-23T06:04:26.294Z,100757.95
2018-09-23T06:06:56.796Z,100755.16
2018-09-23T06:09:27.287Z,100746.16
2018-09-23T06:11:57.681Z,100739.52
2018-09-23T06:14:27.980Z,100739.60
2018-09-23T06:16:58.312Z,100740.71
2018-09-23T06:19:28.703Z,100744.28
2018-09-23T06:21:58.984Z,100757.98
2018-09-23T06:24:29.352Z,100754.55
2018-09-23T06:26:59.719Z,100750.89
2018-09-23T06:29:30.196Z,100750.89
2018-09-23T06:32:00.700Z,100750.30
2018-09-23T06:34:31.209Z,100739.85
2018-09-23T06:37:01.601Z,100745.56
2018-09-23T06:39:32.122Z,100739.90
2018-09-23T06:42:02.504Z,100743.17
2018-09-23T06:44:32.905Z,100742.34
2018-09-23T06:47:03.396Z,100735.47
2018-09-23T06:49:33.731Z,100733.56
2018-09-23T06:52:04.188Z,100742.23
2018-09-23T06:54:34.607Z,100742.47
2018-09-23T06:57:04.938Z,100743.98
2018-09-23T06:59:35.580Z,100743.52
2018-09-23T07:02:06.197Z,100738.31
2018-09-23T07:04:36.467Z,100731.69
2018-09-23T07:07:06.823Z,100729.55
2018-09-23T07:09:37.286Z,100727.31
2018-09-23T07:12:07.790Z,100718.47
2018-09-23T07:14:38.288Z,100721.91
2018-09-23T07:17:09.968Z,100725.59
2018-09-23T07:19:40.431Z,100731.47
2018-09-23T07:22:10.941Z,100728.39
2018-09-23T07:24:41.399Z,100731.99
2018-09-23T07:27:11.968Z,100730.95
2018-09-23T07:29:42.215Z,100730.28
2018-09-23T07:32:12.508Z,100719.30
2018-09-23T07:34:43.118Z,100723.33
2018-09-23T07:37:13.613Z,100732.94
2018-09-23T07:39:43.986Z,100735.59
2018-09-23T07:42:15.329Z,100742.48
2018-09-23T07:44:45.834Z,100742.16
2018-09-23T07:47:16.409Z,100735.95
2018-09-23T07:49:46.977Z,100724.55
2018-09-23T07:52:17.204Z,100716.95
2018-09-23T07:54:47.600Z,100714.75
2018-09-23T07:57:17.929Z,100701.33
2018-09-23T07:59:48.333Z,100691.37
2018-09-23T08:02:18.603Z,100672.22
2018-09-23T08:04:48.968Z,100674.22
2018-09-23T08:07:19.571Z,100678.30
2018-09-23T08:09:50.034Z,100688.39
2018-09-23T08:12:20.656Z,100687.83
2018-09-23T08:14:51.454Z,100678.50
2018-09-23T08:17:21.767Z,100678.22
2018-09-23T08:19:52.198Z,100663.81
2018-09-23T08:22:22.447Z,100671.70
2018-09-23T08:24:52.871Z,100664.90
2018-09-23T08:27:23.249Z,100663.47
2018-09-23T08:29:53.581Z,100652.14
2018-09-23T08:32:24.085Z,100660.34
2018-09-23T08:34:54.588Z,100648.88
2018-09-23T08:37:25.313Z,100647.95
2018-09-23T08:39:55.750Z,100661.45
2018-09-23T08:42:26.431Z,100668.05
2018-09-23T08:44:56.917Z,100665.80
2018-09-23T08:47:28.013Z,100657.41
2018-09-23T08:49:58.389Z,100648.33
2018-09-23T08:52:28.758Z,100663.52
2018-09-23T08:54:59.141Z,100672.88
2018-09-23T08:57:29.526Z,100660.44
2018-09-23T09:00:00.076Z,100660.53
2018-09-23T09:02:30.574Z,100651.09
2018-09-23T09:05:00.750Z,100635.22
2018-09-23T09:07:31.248Z,100619.84
2018-09-23T09:10:01.599Z,100615.97
2018-09-23T09:12:32.006Z,100610.98
2018-09-23T09:15:02.301Z,100602.63
2018-09-23T09:17:32.627Z,100591.03
2018-09-23T09:20:03.209Z,100598.20
2018-09-23T09:22:33.819Z,100609.91
2018-09-23T09:25:04.411Z,100602.59
2018-09-23T09:27:34.804Z,100594.95
2018-09-23T09:30:05.227Z,100592.60
2018-09-23T09:32:35.776Z,100590.92
2018-09-23T09:35:06.365Z,100580.53
2018-09-23T09:37:36.695Z,100565.33
2018-09-23T09:40:07.287Z,100564.75
2018-09-23T09:42:37.825Z,100557.76
2018-09-23T09:45:08.251Z,100559.53
2018-09-23T09:47:38.612Z,100558.87
2018-09-23T09:50:09.007Z,100567.14
2018-09-23T09:52:39.513Z,100554.53
2018-09-23T09:55:09.895Z,100557.75
2018-09-23T09:57:40.237Z,100547.36
2018-09-23T10:00:10.807Z,100549.86
2018-09-23T10:02:41.202Z,100554.23
2018-09-23T10:05:11.704Z,100536.22
2018-09-23T10:07:42.210Z,100520.70
2018-09-23T10:10:12.584Z,100522.13
2018-09-23T10:12:42.938Z,100517.10
2018-09-23T10:15:13.543Z,100515.23
2018-09-23T10:17:44.063Z,100519.78
2018-09-23T10:20:14.500Z,100516.89
2018-09-23T10:22:45.309Z,100513.56
2018-09-23T10:25:15.780Z,100508.93
2018-09-23T10:27:46.380Z,100512.52
2018-09-23T10:30:16.744Z,100500.72
2018-09-23T10:32:46.976Z,100495.50
2018-09-23T10:35:17.379Z,100489.83
2018-09-23T10:37:47.802Z,100491.98
2018-09-23T10:40:18.176Z,100491.06
2018-09-23T10:42:48.710Z,100493.56
2018-09-23T10:45:19.186Z,100490.52
2018-09-23T10:47:49.672Z,100491.42
2018-09-23T10:50:20.188Z,100500.46
2018-09-23T10:52:50.754Z,100503.05
2018-09-23T10:55:21.038Z,100495.41
2018-09-23T10:57:51.424Z,100485.48
2018-09-23T11:00:22.017Z,100467.63
2018-09-23T11:02:52.580Z,100458.45
2018-09-23T11:05:22.867Z,100452.96
2018-09-23T11:07:53.104Z,100448.96
2018-09-23T11:10:23.500Z,100437.16
2018-09-23T11:12:53.920Z,100426.66
2018-09-23T11:15:24.370Z,100439.19
2018-09-23T11:17:54.652Z,100443.69
2018-09-23T11:20:25.057Z,100452.12
2018-09-23T11:22:55.417Z,100447.75
2018-09-23T11:25:25.767Z,100446.27
2018-09-23T11:27:56.192Z,100448.04
2018-09-23T11:30:26.436Z,100446.64
2018-09-23T11:32:56.813Z,100434.38
2018-09-23T11:35:27.221Z,100438.72
2018-09-23T11:37:57.705Z,100447.09
2018-09-23T11:40:28.081Z,100450.80
2018-09-23T11:42:58.529Z,100436.13
2018-09-23T11:45:28.932Z,100433.58
2018-09-23T11:47:59.441Z,100429.39
2018-09-23T11:50:30.072Z,100427.94
2018-09-23T11:53:00.499Z,100426.73
2018-09-23T11:55:30.754Z,100409.36
2018-09-23T11:58:01.303Z,100418.36
2018-09-23T12:00:31.816Z,100414.23
2018-09-23T12:03:02.330Z,100399.97
2018-09-23T12:05:32.586Z,100396.61
2018-09-23T12:08:03.104Z,100400.06
2018-09-23T12:10:33.549Z,100397.48
2018-09-23T12:13:04.156Z,100410.29
2018-09-23T12:15:34.588Z,100408.55
2018-09-23T12:18:05.400Z,100398.20
2018-09-23T12:20:35.904Z,100390.70
2018-09-23T12:23:06.268Z,100374.47
2018-09-23T12:25:36.700Z,100361.81
2018-09-23T12:28:07.124Z,100359.21
2018-09-23T12:30:37.524Z,100352.05
2018-09-23T12:33:08.050Z,100341.75
2018-09-23T12:35:38.472Z,100345.84
2018-09-23T12:38:08.739Z,100317.26
2018-09-23T12:40:39.116Z,100301.86
2018-09-23T12:43:09.657Z,100299.73
2018-09-23T12:45:39.957Z,100293.49
2018-09-23T12:48:10.348Z,100294.83
2018-09-23T12:50:40.763Z,100278.85
2018-09-23T12:53:11.220Z,100255.75
2018-09-23T12:55:41.478Z,100244.41
2018-09-23T12:58:11.988Z,100230.21
2018-09-23T13:00:42.480Z,100228.56
2018-09-23T13:03:12.728Z,100213.34
2018-09-23T13:05:43.140Z,100209.81
2018-09-23T13:08:13.603Z,100223.80
2018-09-23T13:10:43.761Z,100251.00
2018-09-23T13:13:14.271Z,100270.87
2018-09-23T13:15:44.735Z,100267.89
2018-09-23T13:18:15.220Z,100264.56
2018-09-23T13:20:45.516Z,100261.97
2018-09-23T13:23:15.744Z,100258.52
2018-09-23T13:25:46.187Z,100230.60
2018-09-23T13:28:16.753Z,100204.78
2018-09-23T13:30:47.135Z,100237.09
2018-09-23T13:33:17.384Z,100271.02
2018-09-23T13:35:47.871Z,100225.19
2018-09-23T13:38:18.375Z,100190.88
2018-09-23T13:40:48.769Z,100181.04
2018-09-23T13:43:19.095Z,100194.20
2018-09-23T13:45:49.710Z,100192.47
2018-09-23T13:48:20.177Z,100214.08
2018-09-23T13:50:50.487Z,100240.05
2018-09-23T13:53:20.842Z,100220.75
2018-09-23T13:55:51.524Z,100213.69
2018-09-23T13:58:21.839Z,100229.56
2018-09-23T14:00:52.182Z,100240.42
2018-09-23T14:03:22.843Z,100233.55
2018-09-23T14:05:53.338Z,100215.66
2018-09-23T14:08:23.853Z,100187.27
2018-09-23T14:10:54.344Z,100198.95
2018-09-23T14:13:25.402Z,100198.48
2018-09-23T14:15:55.811Z,100203.68
2018-09-23T14:18:26.318Z,100187.36
2018-09-23T14:20:56.551Z,100193.95
2018-09-23T14:23:27.087Z,100214.26
2018-09-23T14:25:57.532Z,100197.66
2018-09-23T14:28:28.143Z,100194.59
2018-09-23T14:30:58.472Z,100211.48
2018-09-23T14:33:28.863Z,100194.05
2018-09-23T14:35:59.323Z,100180.38
2018-09-23T14:38:29.952Z,100181.04
2018-09-23T14:41:00.319Z,100204.51
2018-09-23T14:43:30.568Z,100226.11
2018-09-23T14:46:00.872Z,100231.58
2018-09-23T14:48:31.419Z,100225.25
2018-09-23T14:51:02.332Z,100232.84
2018-09-23T14:53:32.808Z,100239.81
2018-09-23T14:56:03.336Z,100261.44
2018-09-23T14:58:33.635Z,100273.22
2018-09-23T15:01:04.107Z,100234.47
2018-09-23T15:03:34.580Z,100226.93
2018-09-23T15:06:05.048Z,100222.02
2018-09-23T15:08:35.529Z,100189.21
2018-09-23T15:11:05.998Z,100178.35
2018-09-23T15:13:36.343Z,100171.29
2018-09-23T15:16:06.860Z,100172.30
2018-09-23T15:18:37.368Z,100194.28
2018-09-23T15:21:07.696Z,100224.77
2018-09-23T15:23:38.236Z,100228.22
2018-09-23T15:26:08.583Z,100194.22
2018-09-23T15:28:38.943Z,100184.27
2018-09-23T15:31:09.333Z,100190.09
2018-09-23T15:33:39.711Z,100176.83
2018-09-23T15:36:10.049Z,100164.95
2018-09-23T15:38:40.382Z,100198.99
2018-09-23T15:41:10.841Z,100206.49
2018-09-23T15:43:41.612Z,100191.39
2018-09-23T15:46:12.215Z,100178.46
2018-09-23T15:48:42.684Z,100176.77
2018-09-23T15:51:13.284Z,100210.96
2018-09-23T15:53:43.676Z,100240.39
2018-09-23T15:56:14.028Z,100227.75
2018-09-23T15:58:44.435Z,100245.41
2018-09-23T16:01:14.819Z,100258.76
2018-09-23T16:03:45.263Z,100257.37
2018-09-23T16:06:15.585Z,100280.55
2018-09-23T16:08:46.092Z,100252.19
2018-09-23T16:11:16.590Z,100264.74
2018-09-23T16:13:46.852Z,100290.89
2018-09-23T16:16:17.185Z,100300.17
2018-09-23T16:18:47.721Z,100312.04
2018-09-23T16:21:17.959Z,100313.09
2018-09-23T16:23:48.417Z,100325.28
2018-09-23T16:26:18.929Z,100327.14
2018-09-23T16:28:49.386Z,100350.20
2018-09-23T16:31:19.768Z,100374.98
2018-09-23T16:33:50.259Z,100395.09
2018-09-23T16:36:20.749Z,100405.91
2018-09-23T16:38:51.084Z,100427.19
2018-09-23T16:41:21.608Z,100442.89
2018-09-23T16:43:52.005Z,100434.83
2018-09-23T16:46:22.590Z,100400.49
2018-09-23T16:48:52.943Z,100388.75
2018-09-23T16:51:23.436Z,100400.41
2018-09-23T16:53:53.768Z,100412.30
2018-09-23T16:56:24.219Z,100409.66
2018-09-23T16:58:54.584Z,100409.20
2018-09-23T17:01:24.942Z,100419.18
2018-09-23T17:03:55.240Z,100426.05
2018-09-23T17:06:31.084Z,100427.27
2018-09-23T17:09:01.464Z,100438.22
2018-09-23T17:11:31.902Z,100445.84
2018-09-23T17:14:02.322Z,100458.95
2018-09-23T17:16:32.686Z,100449.58
2018-09-23T17:19:03.004Z,100448.52
2018-09-23T17:21:33.328Z,100456.95
2018-09-23T17:24:03.634Z,100470.84
2018-09-23T17:26:33.977Z,100476.16
2018-09-23T17:29:04.400Z,100481.64
2018-09-23T17:31:34.968Z,100488.74
2018-09-23T17:34:05.451Z,100484.78
2018-09-23T17:36:35.907Z,100492.28
2018-09-23T17:39:09.633Z,100500.74
2018-09-23T17:41:40.516Z,100509.58
2018-09-23T17:44:10.918Z,100527.39
2018-09-23T17:46:41.295Z,100540.31
2018-09-23T17:49:11.652Z,100540.19
2018-09-23T17:51:41.967Z,100548.44
2018-09-23T17:54:12.281Z,100549.02
2018-09-23T17:56:42.669Z,100562.67
2018-09-23T17:59:13.161Z,100566.38
2018-09-23T18:01:43.609Z,100562.52
2018-09-23T18:04:14.100Z,100564.60
2018-09-23T18:06:44.529Z,100565.73
2018-09-23T18:09:14.932Z,100566.89
2018-09-23T18:11:45.421Z,100567.68
2018-09-23T18:14:15.768Z,100574.08
2018-09-23T18:16:46.260Z,100584.41
2018-09-23T18:19:16.616Z,100604.08
2018-09-23T18:21:46.940Z,100610.81
2018-09-23T18:24:17.433Z,100628.97
2018-09-23T18:26:47.796Z,100624.91
2018-09-23T18:29:18.080Z,100630.84
2018-09-23T18:31:48.438Z,100636.20
2018-09-23T18:34:23.148Z,100644.11
2018-09-23T18:36:54.631Z,100652.74
2018-09-23T18:39:25.691Z,100654.97
2018-09-23T18:42:04.786Z,100643.58
2018-09-23T18:44:35.506Z,100636.59
2018-09-23T18:47:08.933Z,100643.47
2018-09-23T18:49:39.753Z,100657.52
2018-09-23T18:52:10.380Z,100673.16
2018-09-23T18:54:45.820Z,100682.16
2018-09-23T18:57:16.211Z,100688.16
2018-09-23T18:59:46.852Z,100691.61
2018-09-23T19:02:17.461Z,100699.12
2018-09-23T19:04:47.962Z,100693.55
2018-09-23T19:07:18.497Z,100708.77
2018-09-23T19:09:49.089Z,100705.41
2018-09-23T19:12:19.620Z,100714.25
2018-09-23T19:14:49.826Z,100708.69
2018-09-23T19:17:20.379Z,100726.30
2018-09-23T19:19:55.924Z,100719.06
2018-09-23T19:22:31.244Z,100729.14
2018-09-23T19:25:01.778Z,100735.42
2018-09-23T19:27:32.246Z,100746.44
2018-09-23T19:30:02.731Z,100757.73
2018-09-23T19:32:33.401Z,100757.36
2018-09-23T19:35:03.955Z,100767.05
2018-09-23T19:37:34.587Z,100782.59
2018-09-23T19:40:05.145Z,100787.91
2018-09-23T19:42:35.616Z,100798.38
2018-09-23T19:45:06.197Z,100807.14
2018-09-23T19:47:36.692Z,100818.27
2018-09-23T19:50:07.207Z,100821.68
2018-09-23T19:52:37.547Z,100824.06
2018-09-23T19:55:08.384Z,100834.90
2018-09-23T19:57:38.572Z,100829.58
2018-09-23T20:00:08.964Z,100837.82
2018-09-23T20:02:39.434Z,100855.60
2018-09-23T20:05:10.102Z,100863.38
2018-09-23T20:07:41.208Z,100865.56
2018-09-23T20:10:11.653Z,100866.28
2018-09-23T20:12:42.704Z,100869.23
2018-09-23T20:15:17.098Z,100875.34
2018-09-23T20:17:48.256Z,100875.64
2018-09-23T20:20:18.483Z,100881.49
2018-09-23T20:22:49.026Z,100890.34
2018-09-23T20:25:19.491Z,100899.31
2018-09-23T20:27:49.815Z,100902.33
2018-09-23T20:30:20.077Z,100902.93
2018-09-23T20:32:50.442Z,100907.44
2018-09-23T20:35:21.000Z,100901.03
2018-09-23T20:37:51.311Z,100905.86
2018-09-23T20:40:21.456Z,100918.39
2018-09-23T20:42:51.738Z,100938.20
2018-09-23T20:45:22.234Z,100941.48
2018-09-23T20:47:52.635Z,100953.89
2018-09-23T20:50:22.877Z,100957.50
2018-09-23T20:52:53.267Z,100959.31
2018-09-23T20:55:23.659Z,100961.10
2018-09-23T20:57:53.945Z,100961.66
2018-09-23T21:00:24.283Z,100974.51
2018-09-23T21:02:54.500Z,100979.71
2018-09-23T21:05:24.757Z,100983.66
2018-09-23T21:07:55.259Z,100985.13
2018-09-23T21:10:25.731Z,100989.05
2018-09-23T21:12:56.218Z,100995.66
2018-09-23T21:15:26.686Z,101011.91
2018-09-23T21:17:56.975Z,101017.49
2018-09-23T21:20:28.073Z,101018.50
2018-09-23T21:22:59.300Z,101019.73
2018-09-23T21:25:29.768Z,101017.86
2018-09-23T21:28:00.235Z,101033.05
2018-09-23T21:30:30.450Z,101045.91
2018-09-23T21:33:00.730Z,101054.27
2018-09-23T21:35:31.011Z,101052.38
2018-09-23T21:38:01.224Z,101061.94
2018-09-23T21:40:31.758Z,101064.18
2018-09-23T21:43:02.331Z,101065.41
2018-09-23T21:45:32.758Z,101069.12
2018-09-23T21:48:03.326Z,101075.31
2018-09-23T21:50:34.143Z,101080.45
2018-09-23T21:53:04.607Z,101085.83
2018-09-23T21:55:34.976Z,101097.67
2018-09-23T21:58:05.417Z,101099.02
2018-09-23T22:00:40.876Z,101106.90
2018-09-23T22:03:12.313Z,101106.36
2018-09-23T22:05:42.840Z,101114.31
2018-09-23T22:08:13.556Z,101112.83
2018-09-23T22:10:43.941Z,101110.61
2018-09-23T22:13:14.210Z,101121.61
2018-09-23T22:15:44.599Z,101120.48
2018-09-23T22:18:15.091Z,101122.72
2018-09-23T22:20:45.469Z,101129.66
2018-09-23T22:23:15.814Z,101127.96
2018-09-23T22:25:46.337Z,101130.79
2018-09-23T22:28:16.816Z,101144.48
2018-09-23T22:30:47.211Z,101151.64
2018-09-23T22:33:17.564Z,101154.34
2018-09-23T22:35:48.067Z,101158.24
2018-09-23T22:38:18.655Z,101162.28
2018-09-23T22:40:49.024Z,101167.97
2018-09-23T22:43:19.496Z,101167.32
2018-09-23T22:45:50.008Z,101173.81
2018-09-23T22:48:20.507Z,101176.52
2018-09-23T22:50:50.813Z,101186.40
2018-09-23T22:53:21.258Z,101192.14
2018-09-23T22:55:51.537Z,101193.84
2018-09-23T22:58:21.905Z,101202.13
2018-09-23T23:00:52.368Z,101215.31
2018-09-23T23:03:22.799Z,101211.08
2018-09-23T23:05:53.175Z,101215.80
2018-09-23T23:08:23.490Z,101217.19
2018-09-23T23:10:53.915Z,101219.17
2018-09-23T23:13:24.668Z,101219.94
2018-09-23T23:15:55.098Z,101218.52
2018-09-23T23:18:25.468Z,101221.41
2018-09-23T23:20:55.745Z,101221.20
2018-09-23T23:23:26.108Z,101228.50
2018-09-23T23:25:56.489Z,101239.02
2018-09-23T23:28:26.978Z,101234.43
2018-09-23T23:30:57.374Z,101247.03
2018-09-23T23:33:27.729Z,101256.70
2018-09-23T23:35:58.017Z,101261.82
2018-09-23T23:38:28.400Z,101262.64
2018-09-23T23:40:58.691Z,101269.37
2018-09-23T23:43:28.957Z,101284.30
2018-09-23T23:45:59.420Z,101294.76
2018-09-23T23:48:29.932Z,101299.95
2018-09-23T23:51:00.307Z,101307.05
2018-09-23T23:53:30.687Z,101312.84
2018-09-23T23:56:01.036Z,101304.81
2018-09-23T23:58:31.511Z,101309.56
